Time;durP1;ratioP1;P1;durP2;ratioP2;P2;SDS_P1;SDS_P2;PMS_P1;PMS_P2;Temp;Humidity;BMP_temperature;BMP_pressure;BME280_temperature;BME280_humidity;BME280_pressure;Samples;Min_cycle;Max_cycle;Signal;HPM_P1;HPM_P2
2023/12/19 00:00:37;;;;;;;13.63;8.93;;;6.60;99.90;;;;;;5138468;27;20462;-68
2023/12/19 00:03:05;;;;;;;15.30;10.17;;;6.60;99.90;;;;;;5121653;27;20446;-68
2023/12/19 00:05:33;;;;;;;12.27;9.73;;;6.70;99.90;;;;;;5139907;27;20438;-68
2023/12/19 00:08:02;;;;;;;16.07;9.37;;;6.70;99.90;;;;;;5122084;27;20438;-67
2023/12/19 00:10:29;;;;;;;12.33;8.23;;;6.70;99.90;;;;;;5139450;27;20489;-68
2023/12/19 00:12:57;;;;;;;12.77;10.23;;;6.60;99.90;;;;;;5140996;27;20503;-67
2023/12/19 00:15:24;;;;;;;15.60;10.07;;;6.60;99.90;;;;;;5122643;27;20445;-68
2023/12/19 00:17:52;;;;;;;16.73;9.20;;;6.60;99.90;;;;;;5139816;27;20442;-68
2023/12/19 00:20:19;;;;;;;15.03;10.70;;;6.60;99.90;;;;;;5140234;27;20458;-67
2023/12/19 00:22:48;;;;;;;13.70;9.20;;;6.60;99.90;;;;;;5121273;27;20438;-68
2023/12/19 00:25:16;;;;;;;14.90;9.27;;;6.60;99.90;;;;;;5144125;27;20441;-68
2023/12/19 00:27:43;;;;;;;13.43;8.70;;;6.50;99.90;;;;;;5140507;27;20488;-68
2023/12/19 00:30:11;;;;;;;13.20;8.83;;;6.50;99.90;;;;;;5139410;27;20846;-67
2023/12/19 00:32:38;;;;;;;13.93;9.37;;;6.40;99.90;;;;;;5121172;27;20943;-68
2023/12/19 00:35:06;;;;;;;15.00;8.33;;;6.40;99.90;;;;;;5139299;27;20449;-67
2023/12/19 00:37:33;;;;;;;13.97;9.13;;;6.40;99.90;;;;;;5138757;27;20868;-67
2023/12/19 00:40:00;;;;;;;13.10;9.20;;;6.40;99.90;;;;;;5139196;27;20465;-67
2023/12/19 00:42:28;;;;;;;14.43;9.17;;;6.40;99.90;;;;;;5139370;27;20442;-68
2023/12/19 00:44:54;;;;;;;10.67;8.37;;;6.30;99.90;;;;;;5121550;27;20971;-68
2023/12/19 00:47:21;;;;;;;11.30;8.43;;;6.30;99.90;;;;;;5120770;27;20442;-68
2023/12/19 00:49:48;;;;;;;14.50;8.80;;;6.40;99.90;;;;;;5139245;27;20473;-67
2023/12/19 00:52:15;;;;;;;13.00;8.67;;;6.40;99.90;;;;;;5140339;27;20446;-68
2023/12/19 00:54:42;;;;;;;8.80;7.07;;;6.40;99.90;;;;;;5140081;27;20430;-68
2023/12/19 00:57:09;;;;;;;12.67;7.90;;;6.40;99.90;;;;;;5104620;27;20442;-68
2023/12/19 00:59:37;;;;;;;13.07;8.60;;;6.50;99.90;;;;;;5138270;27;20461;-67
2023/12/19 01:02:04;;;;;;;10.20;7.00;;;6.50;99.90;;;;;;5120540;27;20529;-68
2023/12/19 01:04:31;;;;;;;10.40;7.90;;;6.60;99.90;;;;;;5140478;27;20442;-68
2023/12/19 01:06:58;;;;;;;9.27;8.03;;;6.50;99.90;;;;;;5140504;27;20441;-68
2023/12/19 01:09:25;;;;;;;11.70;7.07;;;6.50;99.90;;;;;;5122031;27;20462;-67
2023/12/19 01:11:52;;;;;;;12.20;8.53;;;6.50;99.90;;;;;;5140231;27;20488;-67
2023/12/19 01:14:19;;;;;;;9.93;8.03;;;6.60;99.90;;;;;;5140543;28;20953;-68
2023/12/19 01:16:47;;;;;;;14.17;8.33;;;6.60;99.90;;;;;;5140903;28;20434;-68
2023/12/19 01:19:14;;;;;;;10.93;7.63;;;6.60;99.90;;;;;;5141432;28;20465;-67
2023/12/19 01:21:41;;;;;;;12.83;8.40;;;6.60;99.90;;;;;;5124414;28;20438;-68
2023/12/19 01:24:08;;;;;;;12.70;8.30;;;6.60;99.90;;;;;;5141110;28;20442;-68
2023/12/19 01:26:35;;;;;;;11.00;8.20;;;6.60;99.90;;;;;;5141581;28;20448;-67
2023/12/19 01:29:02;;;;;;;12.03;8.37;;;6.70;99.90;;;;;;5140820;28;20441;-67
2023/12/19 01:31:29;;;;;;;14.63;7.33;;;6.70;99.90;;;;;;5141344;28;20485;-68
2023/12/19 01:33:58;;;;;;;8.90;7.17;;;6.70;99.90;;;;;;5140271;28;20996;-67
2023/12/19 01:36:25;;;;;;;11.33;7.93;;;6.80;99.90;;;;;;5140576;28;20481;-68
2023/12/19 01:38:52;;;;;;;10.70;7.70;;;6.80;99.90;;;;;;5122314;28;20894;-67
2023/12/19 01:41:22;;;;;;;11.73;8.40;;;6.80;99.90;;;;;;5141854;27;20445;-68
2023/12/19 01:43:48;;;;;;;8.80;7.33;;;6.80;99.90;;;;;;5146379;27;20449;-68
2023/12/19 01:46:17;;;;;;;10.90;7.60;;;6.80;99.90;;;;;;5145024;27;20453;-68
2023/12/19 01:48:44;;;;;;;10.00;8.40;;;6.80;99.90;;;;;;5145697;27;20947;-68
2023/12/19 01:51:13;;;;;;;12.83;7.60;;;6.80;99.90;;;;;;5144554;27;20485;-68
2023/12/19 01:53:43;;;;;;;10.00;7.77;;;6.90;99.90;;;;;;5146989;27;20458;-68
2023/12/19 01:56:12;;;;;;;11.87;8.83;;;6.90;99.90;;;;;;5146520;27;20526;-68
2023/12/19 01:58:40;;;;;;;10.67;8.27;;;6.90;99.90;;;;;;5144848;27;20441;-68
2023/12/19 02:01:08;;;;;;;15.30;9.50;;;6.90;99.90;;;;;;5141310;27;20461;-67
2023/12/19 02:03:35;;;;;;;12.80;9.33;;;7.00;99.90;;;;;;5141344;27;20445;-67
2023/12/19 02:06:03;;;;;;;8.93;7.53;;;7.00;99.90;;;;;;5141022;27;20452;-68
2023/12/19 02:08:32;;;;;;;12.70;9.23;;;7.00;99.90;;;;;;5140393;27;20850;-68
2023/12/19 02:10:59;;;;;;;11.87;8.70;;;7.00;99.90;;;;;;5140522;27;20897;-68
2023/12/19 02:13:27;;;;;;;11.10;7.87;;;7.10;99.90;;;;;;5122511;27;20438;-68
2023/12/19 02:15:56;;;;;;;13.60;8.63;;;7.10;99.90;;;;;;5140330;27;20449;-68
2023/12/19 02:18:23;;;;;;;9.83;8.30;;;7.10;99.90;;;;;;5121736;27;20460;-68
2023/12/19 02:20:50;;;;;;;11.53;8.70;;;7.10;99.90;;;;;;5139280;27;20458;-68
2023/12/19 02:23:20;;;;;;;11.00;8.80;;;7.20;99.90;;;;;;5139063;27;20438;-68
2023/12/19 02:25:47;;;;;;;11.17;8.50;;;7.20;99.90;;;;;;5139868;27;20430;-68
2023/12/19 02:28:14;;;;;;;11.30;7.47;;;7.20;99.90;;;;;;5139116;27;20441;-68
2023/12/19 02:30:40;;;;;;;11.73;7.97;;;7.20;99.90;;;;;;5139686;27;20493;-68
2023/12/19 02:33:06;;;;;;;14.20;8.23;;;7.30;99.90;;;;;;5139034;27;20805;-68
2023/12/19 02:35:34;;;;;;;9.20;7.37;;;7.30;99.90;;;;;;5139268;27;20196;-68
2023/12/19 02:38:01;;;;;;;11.00;7.60;;;7.30;99.90;;;;;;5121007;27;20530;-68
2023/12/19 02:40:31;;;;;;;10.00;7.70;;;7.30;99.90;;;;;;5138208;27;20466;-67
2023/12/19 02:42:57;;;;;;;14.10;8.30;;;7.40;99.90;;;;;;5138501;27;20448;-68
2023/12/19 02:45:24;;;;;;;9.37;6.73;;;7.40;99.90;;;;;;5138449;27;20534;-68
2023/12/19 02:47:51;;;;;;;9.37;7.23;;;7.40;99.90;;;;;;5138724;27;20471;-68
2023/12/19 02:50:18;;;;;;;10.37;7.80;;;7.50;99.90;;;;;;5139114;27;20522;-68
2023/12/19 02:52:45;;;;;;;9.43;7.30;;;7.50;99.90;;;;;;5139124;27;20511;-68
2023/12/19 02:55:14;;;;;;;10.03;6.93;;;7.50;99.90;;;;;;5138312;27;20445;-68
2023/12/19 02:57:42;;;;;;;9.57;7.80;;;7.50;99.90;;;;;;5121823;27;20453;-68
2023/12/19 03:00:10;;;;;;;8.07;6.40;;;7.60;99.90;;;;;;5139555;27;20462;-68
2023/12/19 03:02:38;;;;;;;8.17;6.47;;;7.60;99.90;;;;;;5138996;27;20453;-68
2023/12/19 03:05:05;;;;;;;11.60;7.50;;;7.60;99.90;;;;;;5139509;27;20442;-68
2023/12/19 03:07:32;;;;;;;8.80;6.93;;;7.70;99.90;;;;;;5139111;27;20454;-67
2023/12/19 03:10:05;;;;;;;9.97;7.50;;;7.70;99.90;;;;;;5138919;27;20462;-68
2023/12/19 03:12:32;;;;;;;10.57;7.27;;;7.60;99.90;;;;;;5138481;27;20553;-68
2023/12/19 03:15:00;;;;;;;14.50;7.10;;;7.60;99.90;;;;;;5139080;27;20794;-68
2023/12/19 03:17:27;;;;;;;9.80;7.30;;;7.60;99.90;;;;;;5138793;27;20438;-68
2023/12/19 03:19:54;;;;;;;8.63;6.77;;;7.60;99.90;;;;;;5138674;27;20472;-68
2023/12/19 03:22:22;;;;;;;8.07;7.07;;;7.60;99.90;;;;;;5138633;27;20449;-68
2023/12/19 03:24:49;;;;;;;11.97;7.60;;;7.70;99.90;;;;;;5138523;27;20446;-68
2023/12/19 03:27:15;;;;;;;7.87;6.43;;;7.70;99.90;;;;;;5138193;27;20442;-68
2023/12/19 03:29:43;;;;;;;10.60;7.33;;;7.70;99.90;;;;;;5119638;27;21043;-67
2023/12/19 03:32:11;;;;;;;8.50;6.67;;;7.70;99.90;;;;;;5120646;27;20509;-69
2023/12/19 03:34:39;;;;;;;9.80;7.23;;;7.70;99.90;;;;;;5142293;27;20997;-69
2023/12/19 03:37:06;;;;;;;9.90;7.53;;;7.70;99.90;;;;;;5140647;27;20445;-68
2023/12/19 03:39:33;;;;;;;9.07;7.70;;;7.70;99.90;;;;;;5139120;27;20466;-67
2023/12/19 03:41:59;;;;;;;11.67;7.40;;;7.70;99.90;;;;;;5139108;27;20433;-68
2023/12/19 03:44:27;;;;;;;12.43;7.50;;;7.70;99.90;;;;;;5138766;27;20849;-68
2023/12/19 03:46:54;;;;;;;10.27;7.93;;;7.70;99.90;;;;;;5138214;27;20533;-68
2023/12/19 03:49:22;;;;;;;10.20;7.27;;;7.70;99.90;;;;;;5138065;27;20462;-67
2023/12/19 03:51:49;;;;;;;9.10;6.50;;;7.60;99.90;;;;;;5138255;27;20481;-69
2023/12/19 03:54:17;;;;;;;14.03;8.23;;;7.60;99.90;;;;;;5137897;27;20878;-68
2023/12/19 03:56:43;;;;;;;9.90;7.70;;;7.60;99.90;;;;;;5138450;27;20803;-67
2023/12/19 03:59:10;;;;;;;8.00;7.10;;;7.60;99.90;;;;;;5137498;27;20465;-67
2023/12/19 04:01:44;;;;;;;10.70;7.20;;;7.70;99.90;;;;;;5138086;27;20437;-68
2023/12/19 04:04:11;;;;;;;9.63;7.50;;;7.70;99.90;;;;;;5137849;27;20466;-68
2023/12/19 04:06:42;;;;;;;10.50;7.33;;;7.60;99.90;;;;;;5146423;27;20477;-68
2023/12/19 04:09:09;;;;;;;10.83;7.70;;;7.70;99.90;;;;;;5124047;27;20496;-67
2023/12/19 04:11:36;;;;;;;9.40;8.07;;;7.70;99.90;;;;;;5140462;27;20485;-68
2023/12/19 04:14:03;;;;;;;9.10;7.40;;;7.70;99.90;;;;;;5138932;27;20441;-68
2023/12/19 04:16:29;;;;;;;10.23;7.97;;;7.80;99.90;;;;;;5138481;27;20445;-68
2023/12/19 04:18:56;;;;;;;9.70;7.40;;;7.70;99.90;;;;;;5138103;27;20441;-67
2023/12/19 04:21:23;;;;;;;12.70;7.40;;;7.70;99.90;;;;;;5138231;27;20434;-67
2023/12/19 04:23:51;;;;;;;8.00;6.90;;;7.70;99.90;;;;;;5141491;27;20822;-68
2023/12/19 04:26:19;;;;;;;9.33;7.33;;;7.80;99.90;;;;;;5143147;27;20446;-67
2023/12/19 04:28:46;;;;;;;9.90;7.03;;;7.80;99.90;;;;;;5144981;27;20442;-67
2023/12/19 04:31:12;;;;;;;10.97;7.00;;;7.70;99.90;;;;;;5141932;27;20477;-67
2023/12/19 04:33:39;;;;;;;10.77;7.97;;;7.80;99.90;;;;;;5143952;27;20457;-68
2023/12/19 04:36:08;;;;;;;9.80;7.03;;;7.80;99.90;;;;;;5143462;27;20962;-67
2023/12/19 04:38:34;;;;;;;9.23;6.77;;;7.80;99.90;;;;;;5143474;27;20445;-67
2023/12/19 04:41:03;;;;;;;10.90;7.13;;;7.80;99.90;;;;;;5141406;27;20453;-67
2023/12/19 04:43:30;;;;;;;8.97;7.03;;;7.80;99.90;;;;;;5140775;27;20450;-67
2023/12/19 04:45:57;;;;;;;7.30;6.10;;;7.80;99.90;;;;;;5139924;27;20450;-67
2023/12/19 04:48:23;;;;;;;6.60;6.00;;;7.80;99.90;;;;;;5120593;27;20475;-67
2023/12/19 04:50:50;;;;;;;9.10;6.70;;;7.70;99.90;;;;;;5139192;27;20864;-67
2023/12/19 04:53:17;;;;;;;7.20;6.50;;;7.70;99.90;;;;;;5139898;27;20549;-67
2023/12/19 04:55:45;;;;;;;6.63;5.77;;;7.70;99.90;;;;;;5139540;27;20454;-67
2023/12/19 04:58:13;;;;;;;8.07;6.30;;;7.80;99.90;;;;;;5139689;27;20445;-67
2023/12/19 05:00:40;;;;;;;6.97;6.37;;;7.80;99.90;;;;;;5139216;27;20458;-67
2023/12/19 05:03:07;;;;;;;7.43;6.40;;;7.80;99.90;;;;;;5138512;27;20935;-67
2023/12/19 05:05:34;;;;;;;7.23;6.33;;;7.80;99.90;;;;;;5138699;27;20477;-67
2023/12/19 05:08:01;;;;;;;7.37;6.37;;;7.90;99.90;;;;;;5138786;27;20442;-68
2023/12/19 05:10:27;;;;;;;6.47;5.77;;;7.90;99.90;;;;;;5138162;27;20487;-67
2023/12/19 05:12:54;;;;;;;6.60;5.80;;;7.90;99.90;;;;;;5138036;27;20484;-67
2023/12/19 05:15:22;;;;;;;7.90;5.87;;;7.90;99.90;;;;;;5138644;28;20814;-67
2023/12/19 05:17:49;;;;;;;6.13;5.53;;;7.90;99.90;;;;;;5137227;27;20449;-67
2023/12/19 05:20:16;;;;;;;5.60;5.10;;;7.90;99.90;;;;;;5137895;28;20466;-67
2023/12/19 05:22:42;;;;;;;9.37;5.37;;;7.90;99.90;;;;;;5137651;28;20434;-67
2023/12/19 05:25:09;;;;;;;6.47;5.13;;;7.90;99.90;;;;;;5138788;28;20444;-67
2023/12/19 05:27:39;;;;;;;7.20;5.50;;;7.90;99.90;;;;;;5138301;28;20445;-67
2023/12/19 05:30:07;;;;;;;5.30;4.80;;;7.90;99.90;;;;;;5137611;28;20466;-67
2023/12/19 05:32:35;;;;;;;5.87;5.27;;;7.90;99.90;;;;;;5137298;28;20477;-67
2023/12/19 05:35:02;;;;;;;6.10;5.20;;;8.00;99.90;;;;;;5118833;28;20438;-67
2023/12/19 05:37:29;;;;;;;4.70;4.07;;;8.00;99.90;;;;;;5137304;28;20935;-67
2023/12/19 05:39:56;;;;;;;5.77;5.17;;;8.00;99.90;;;;;;5137385;28;21000;-67
2023/12/19 05:42:22;;;;;;;8.37;4.97;;;8.00;99.90;;;;;;5137579;28;20441;-67
2023/12/19 05:44:49;;;;;;;4.83;4.33;;;8.00;99.90;;;;;;5137973;28;20442;-67
2023/12/19 05:47:16;;;;;;;4.13;3.50;;;8.00;99.90;;;;;;5118394;28;20477;-67
2023/12/19 05:49:44;;;;;;;4.07;3.70;;;8.00;99.90;;;;;;5136489;28;20474;-67
2023/12/19 05:52:11;;;;;;;3.83;3.53;;;8.00;99.90;;;;;;5136502;28;20477;-67
2023/12/19 05:54:38;;;;;;;3.20;2.90;;;8.00;99.90;;;;;;5136770;28;20463;-67
2023/12/19 05:57:05;;;;;;;4.50;3.80;;;8.00;99.90;;;;;;5136856;28;20438;-67
2023/12/19 05:59:32;;;;;;;3.60;3.30;;;8.10;99.90;;;;;;5136316;28;20469;-67
2023/12/19 06:01:58;;;;;;;6.97;4.23;;;8.10;99.90;;;;;;5136227;28;20437;-67
2023/12/19 06:04:25;;;;;;;3.97;3.57;;;8.10;99.90;;;;;;5117863;28;20511;-68
2023/12/19 06:06:53;;;;;;;3.80;3.30;;;8.10;99.90;;;;;;5136194;28;20437;-67
2023/12/19 06:09:20;;;;;;;3.50;3.20;;;8.10;99.90;;;;;;5136163;28;20465;-67
2023/12/19 06:11:47;;;;;;;3.73;3.43;;;8.10;99.90;;;;;;5136274;28;20983;-67
2023/12/19 06:14:13;;;;;;;3.73;3.43;;;8.10;99.90;;;;;;5136544;28;20433;-67
2023/12/19 06:16:40;;;;;;;4.93;4.10;;;8.20;99.90;;;;;;5136860;28;20931;-67
2023/12/19 06:19:07;;;;;;;4.70;4.20;;;8.20;99.90;;;;;;5136087;28;20478;-67
2023/12/19 06:21:34;;;;;;;3.67;3.23;;;8.20;99.90;;;;;;5142074;28;20453;-67
2023/12/19 06:24:02;;;;;;;4.13;3.73;;;8.20;99.90;;;;;;5120833;28;20449;-67
2023/12/19 06:26:29;;;;;;;6.10;3.77;;;8.10;99.90;;;;;;5137191;28;20474;-67
2023/12/19 06:28:56;;;;;;;5.27;4.77;;;8.00;99.90;;;;;;5118421;27;20938;-66
2023/12/19 06:31:23;;;;;;;6.87;4.93;;;8.00;99.90;;;;;;5139543;27;20958;-67
2023/12/19 06:33:50;;;;;;;5.37;4.70;;;8.00;99.90;;;;;;5139224;27;20453;-67
2023/12/19 06:36:31;;;;;;;6.37;5.43;;;8.00;99.90;;;;;;5121909;27;20449;-67
2023/12/19 06:38:58;;;;;;;5.20;4.40;;;8.00;99.90;;;;;;5105172;27;20499;-67
2023/12/19 06:41:26;;;;;;;5.87;4.83;;;8.00;99.90;;;;;;5139760;27;20965;-67
2023/12/19 06:43:53;;;;;;;5.83;5.23;;;8.00;99.90;;;;;;5139856;27;20449;-67
2023/12/19 06:46:20;;;;;;;7.17;6.03;;;8.00;99.90;;;;;;5121187;27;20471;-67
2023/12/19 06:48:47;;;;;;;5.60;5.00;;;8.00;99.90;;;;;;5139547;27;20442;-67
2023/12/19 06:51:23;;;;;;;8.63;6.13;;;8.00;99.90;;;;;;5140698;27;20442;-68
2023/12/19 06:53:52;;;;;;;8.00;5.47;;;8.00;99.90;;;;;;5141003;27;20474;-68
2023/12/19 06:56:19;;;;;;;6.83;5.50;;;8.00;99.90;;;;;;5140797;27;20820;-67
2023/12/19 06:58:48;;;;;;;6.40;5.07;;;8.10;99.90;;;;;;5141547;27;20498;-68
2023/12/19 07:01:16;;;;;;;5.93;5.33;;;8.00;99.90;;;;;;5140519;27;20486;-67
2023/12/19 07:03:42;;;;;;;7.83;5.83;;;8.00;99.90;;;;;;5140248;27;20525;-68
2023/12/19 07:06:09;;;;;;;7.60;5.97;;;8.10;99.90;;;;;;5141862;27;20442;-68
2023/12/19 07:08:36;;;;;;;7.60;5.77;;;8.00;99.90;;;;;;5140733;27;20442;-68
2023/12/19 07:11:03;;;;;;;6.70;6.00;;;8.00;99.90;;;;;;5139413;27;20531;-67
2023/12/19 07:13:31;;;;;;;6.90;6.13;;;8.00;99.90;;;;;;5138466;27;20517;-67
2023/12/19 07:15:59;;;;;;;6.77;5.93;;;7.90;99.90;;;;;;5138846;27;20446;-68
2023/12/19 07:18:26;;;;;;;7.63;6.67;;;7.90;99.90;;;;;;5138883;27;20453;-67
2023/12/19 07:20:53;;;;;;;10.33;6.53;;;7.90;99.90;;;;;;5138565;27;20458;-67
2023/12/19 07:23:20;;;;;;;9.47;5.63;;;7.90;99.90;;;;;;5138937;27;20438;-68
2023/12/19 07:25:46;;;;;;;8.43;6.40;;;8.00;99.90;;;;;;5120481;27;20465;-67
2023/12/19 07:28:15;;;;;;;6.33;5.20;;;7.90;99.90;;;;;;5138432;27;20441;-68
2023/12/19 07:30:41;;;;;;;7.30;5.10;;;8.00;99.90;;;;;;5138936;27;20470;-67
2023/12/19 07:33:10;;;;;;;6.37;5.77;;;8.00;99.90;;;;;;5138348;27;20486;-67
2023/12/19 07:35:37;;;;;;;7.73;6.23;;;8.10;99.90;;;;;;5138421;27;20499;-68
2023/12/19 07:38:05;;;;;;;8.17;5.73;;;8.00;99.90;;;;;;5138461;27;20820;-68
2023/12/19 07:40:31;;;;;;;4.80;4.30;;;8.10;99.90;;;;;;5137884;27;20458;-67
2023/12/19 07:42:58;;;;;;;6.30;5.27;;;8.10;99.90;;;;;;5138339;27;20470;-68
2023/12/19 07:45:25;;;;;;;5.30;4.47;;;8.00;99.90;;;;;;5138441;27;20442;-67
2023/12/19 07:47:52;;;;;;;9.53;5.27;;;8.00;99.90;;;;;;5137764;27;20442;-67
2023/12/19 07:50:20;;;;;;;7.93;5.03;;;8.00;99.90;;;;;;5138060;27;20462;-67
2023/12/19 07:52:47;;;;;;;8.70;5.60;;;8.10;99.90;;;;;;5137646;27;20478;-68
2023/12/19 07:55:14;;;;;;;4.90;4.40;;;8.00;99.90;;;;;;5137876;27;20460;-68
2023/12/19 07:57:41;;;;;;;5.20;4.63;;;8.10;99.90;;;;;;5119495;27;20442;-68
2023/12/19 08:00:09;;;;;;;6.40;4.80;;;8.10;99.90;;;;;;5137959;27;20462;-67
2023/12/19 08:02:36;;;;;;;6.37;4.60;;;8.20;99.90;;;;;;5137823;27;20503;-68
2023/12/19 08:05:04;;;;;;;7.17;4.90;;;8.20;99.90;;;;;;5138001;27;20466;-68
2023/12/19 08:07:33;;;;;;;8.30;5.07;;;8.20;99.90;;;;;;5137460;27;20797;-68
2023/12/19 08:10:03;;;;;;;6.33;5.10;;;8.30;99.90;;;;;;5137553;27;20465;-68
2023/12/19 08:12:30;;;;;;;5.40;4.43;;;8.40;99.90;;;;;;5137393;27;20477;-68
2023/12/19 08:14:57;;;;;;;7.30;5.43;;;8.40;99.90;;;;;;5137631;27;20450;-68
2023/12/19 08:17:24;;;;;;;6.20;4.70;;;8.40;99.90;;;;;;5137741;27;20449;-68
2023/12/19 08:19:51;;;;;;;8.60;5.53;;;8.40;99.90;;;;;;5137632;27;20464;-67
2023/12/19 08:22:18;;;;;;;11.73;5.00;;;8.40;99.90;;;;;;5138405;27;20468;-68
2023/12/19 08:24:49;;;;;;;11.00;4.87;;;8.50;99.90;;;;;;5142291;27;20454;-68
2023/12/19 08:27:16;;;;;;;7.33;5.17;;;8.40;99.90;;;;;;5141321;27;20507;-67
2023/12/19 08:29:45;;;;;;;13.73;4.80;;;8.40;99.90;;;;;;5137521;27;20465;-67
2023/12/19 08:32:13;;;;;;;7.33;4.50;;;8.40;99.90;;;;;;5137596;27;20449;-68
2023/12/19 08:34:42;;;;;;;8.03;4.90;;;8.50;99.90;;;;;;5136836;27;20445;-68
2023/12/19 08:37:08;;;;;;;9.00;4.30;;;8.50;99.90;;;;;;5148240;27;20449;-68
2023/12/19 08:39:35;;;;;;;10.93;4.43;;;8.60;99.90;;;;;;5140645;27;20465;-67
2023/12/19 08:42:04;;;;;;;4.97;4.43;;;8.60;99.90;;;;;;5120602;27;20442;-68
2023/12/19 08:44:30;;;;;;;8.10;4.00;;;8.60;99.90;;;;;;5137671;27;20444;-68
2023/12/19 08:46:57;;;;;;;5.70;4.20;;;8.70;99.90;;;;;;5119216;27;20533;-68
2023/12/19 08:49:24;;;;;;;6.00;3.90;;;8.70;99.90;;;;;;5136988;27;20462;-67
2023/12/19 08:51:51;;;;;;;8.37;4.03;;;8.80;99.90;;;;;;5136528;27;20430;-68
2023/12/19 08:54:18;;;;;;;6.30;4.17;;;8.80;99.90;;;;;;5118573;27;20482;-68
2023/12/19 08:56:45;;;;;;;5.67;3.80;;;8.80;99.90;;;;;;5136898;27;20923;-68
2023/12/19 08:59:14;;;;;;;5.80;3.43;;;8.90;99.90;;;;;;5119223;28;20493;-67
2023/12/19 09:01:41;;;;;;;8.67;3.50;;;9.00;99.90;;;;;;5137096;27;20445;-68
2023/12/19 09:04:08;;;;;;;7.10;3.40;;;8.90;99.90;;;;;;5137085;27;20954;-68
2023/12/19 09:06:35;;;;;;;13.50;4.30;;;8.90;99.90;;;;;;5118462;27;20442;-68
2023/12/19 09:09:01;;;;;;;4.90;3.60;;;8.80;99.90;;;;;;5137043;27;20516;-67
2023/12/19 09:11:28;;;;;;;7.73;3.83;;;8.80;99.90;;;;;;5137141;27;20449;-68
2023/12/19 09:13:55;;;;;;;10.50;3.97;;;8.90;99.90;;;;;;5136508;27;20887;-68
2023/12/19 09:16:23;;;;;;;5.53;3.10;;;8.90;99.90;;;;;;5137134;27;20471;-68
2023/12/19 09:18:51;;;;;;;5.63;3.63;;;9.00;99.90;;;;;;5137015;28;20529;-67
2023/12/19 09:21:18;;;;;;;5.80;3.20;;;9.00;99.90;;;;;;5137022;28;20446;-68
2023/12/19 09:23:45;;;;;;;4.20;3.27;;;9.00;99.90;;;;;;5136611;28;20524;-68
2023/12/19 09:26:13;;;;;;;7.27;3.10;;;9.00;99.90;;;;;;5136144;28;21017;-67
2023/12/19 09:28:43;;;;;;;5.67;3.20;;;9.00;99.90;;;;;;5136607;28;20537;-68
2023/12/19 09:31:12;;;;;;;5.93;3.27;;;9.10;99.90;;;;;;5136725;28;20462;-67
2023/12/19 09:33:40;;;;;;;4.97;2.77;;;9.10;99.90;;;;;;5136371;28;20532;-67
2023/12/19 09:36:09;;;;;;;4.53;2.97;;;9.10;99.90;;;;;;5136346;28;20450;-68
2023/12/19 09:38:36;;;;;;;6.73;3.33;;;9.10;99.90;;;;;;5134498;28;20449;-68
2023/12/19 09:41:03;;;;;;;4.87;2.70;;;9.10;99.90;;;;;;5134151;28;20466;-68
2023/12/19 09:43:32;;;;;;;7.60;2.80;;;9.10;99.90;;;;;;5135028;28;20465;-68
2023/12/19 09:46:01;;;;;;;4.87;2.73;;;9.10;99.90;;;;;;5135298;28;20446;-68
2023/12/19 09:48:32;;;;;;;4.10;2.47;;;9.10;99.90;;;;;;5134496;28;20491;-69
2023/12/19 09:51:03;;;;;;;5.67;2.30;;;9.20;99.90;;;;;;5134258;28;20461;-68
2023/12/19 09:53:32;;;;;;;6.27;2.67;;;9.20;99.90;;;;;;5133762;28;20489;-69
2023/12/19 09:55:59;;;;;;;7.90;2.67;;;9.20;99.90;;;;;;5133913;28;20475;-68
2023/12/19 09:58:28;;;;;;;5.07;2.27;;;9.20;99.90;;;;;;5134255;28;20445;-69
2023/12/19 10:00:57;;;;;;;3.30;2.00;;;9.30;99.90;;;;;;5134024;28;20557;-68
2023/12/19 10:03:25;;;;;;;5.03;2.30;;;9.30;99.90;;;;;;5135325;27;20946;-69
2023/12/19 10:05:51;;;;;;;6.90;2.60;;;9.40;99.90;;;;;;5138082;27;20441;-69
2023/12/19 10:08:21;;;;;;;4.87;2.67;;;9.40;99.90;;;;;;5137649;27;20456;-69
2023/12/19 10:10:53;;;;;;;3.90;2.23;;;9.40;99.90;;;;;;5137606;27;21055;-68
2023/12/19 10:13:30;;;;;;;5.30;2.60;;;9.40;99.90;;;;;;5137747;27;20512;-69
2023/12/19 10:16:01;;;;;;;10.90;2.30;;;9.40;99.90;;;;;;5137708;27;20421;-69
2023/12/19 10:18:28;;;;;;;3.10;2.57;;;9.40;99.90;;;;;;5119379;27;20954;-69
2023/12/19 10:21:08;;;;;;;5.10;2.60;;;9.50;99.90;;;;;;5118940;27;20457;-68
2023/12/19 10:23:36;;;;;;;4.00;2.13;;;9.50;99.90;;;;;;5137992;27;20442;-69
2023/12/19 10:26:03;;;;;;;4.37;2.40;;;9.50;99.90;;;;;;5119503;27;20441;-69
2023/12/19 10:28:32;;;;;;;11.70;2.47;;;9.50;99.90;;;;;;5102160;27;20481;-69
2023/12/19 10:31:15;;;;;;;8.07;2.37;;;9.50;99.90;;;;;;5137511;27;20495;-68
2023/12/19 10:33:45;;;;;;;4.07;2.00;;;9.50;99.90;;;;;;5135478;27;20477;-69
2023/12/19 10:36:23;;;;;;;4.87;2.20;;;9.60;99.90;;;;;;5137562;27;20445;-69
2023/12/19 10:38:52;;;;;;;13.13;3.10;;;9.60;99.90;;;;;;5137027;27;20422;-68
2023/12/19 10:41:23;;;;;;;5.00;2.63;;;9.70;99.90;;;;;;5136955;27;20923;-69
2023/12/19 10:43:51;;;;;;;4.57;2.73;;;9.70;99.90;;;;;;5137368;27;20445;-69
2023/12/19 10:46:24;;;;;;;8.23;2.73;;;9.70;99.90;;;;;;5137497;27;20434;-69
2023/12/19 10:48:51;;;;;;;8.50;3.07;;;9.70;99.90;;;;;;5137441;27;20426;-68
2023/12/19 10:51:30;;;;;;;4.43;2.20;;;9.70;99.90;;;;;;5137377;27;20438;-69
2023/12/19 10:54:08;;;;;;;7.13;2.93;;;9.70;99.90;;;;;;5149671;27;20485;-68
2023/12/19 10:56:41;;;;;;;5.27;2.30;;;9.70;99.90;;;;;;5139894;27;20425;-68
2023/12/19 10:59:13;;;;;;;3.33;2.27;;;9.70;99.90;;;;;;5138136;27;20490;-68
2023/12/19 11:01:42;;;;;;;3.47;2.53;;;9.70;99.90;;;;;;5137602;27;20426;-69
2023/12/19 11:04:16;;;;;;;3.60;2.53;;;9.70;99.90;;;;;;5136710;27;20987;-69
2023/12/19 11:06:52;;;;;;;4.53;2.63;;;9.70;99.90;;;;;;5137070;27;20474;-69
2023/12/19 11:09:25;;;;;;;7.40;2.70;;;9.70;99.90;;;;;;5136897;27;20476;-68
2023/12/19 11:11:53;;;;;;;8.10;2.57;;;9.70;99.90;;;;;;5136940;27;20792;-69
2023/12/19 11:14:23;;;;;;;5.43;2.37;;;9.70;99.90;;;;;;5136152;27;20482;-68
2023/12/19 11:16:54;;;;;;;9.00;3.53;;;9.60;99.90;;;;;;5136729;27;20445;-68
2023/12/19 11:19:25;;;;;;;12.83;3.10;;;9.60;99.90;;;;;;5136604;27;20458;-68
2023/12/19 11:21:59;;;;;;;4.93;3.10;;;9.60;99.90;;;;;;5136266;27;20434;-68
2023/12/19 11:24:33;;;;;;;4.17;2.87;;;9.50;99.90;;;;;;5136611;27;20421;-68
2023/12/19 11:27:06;;;;;;;3.83;3.03;;;9.50;99.90;;;;;;5118902;27;20478;-68
2023/12/19 11:29:47;;;;;;;10.63;4.20;;;9.40;99.90;;;;;;5136039;27;20989;-67
2023/12/19 11:32:38;;;;;;;7.03;3.10;;;9.40;99.90;;;;;;5136939;27;20430;-67
2023/12/19 11:35:13;;;;;;;4.57;3.10;;;9.30;99.90;;;;;;5136110;27;20560;-67
2023/12/19 11:37:41;;;;;;;5.40;3.77;;;9.30;99.90;;;;;;5136156;27;20422;-67
2023/12/19 11:40:18;;;;;;;8.80;3.40;;;9.20;99.90;;;;;;5136217;27;20453;-67
2023/12/19 11:42:49;;;;;;;4.80;3.90;;;9.20;99.90;;;;;;5135927;27;20918;-68
2023/12/19 11:45:36;;;;;;;7.37;4.10;;;9.20;99.90;;;;;;5135969;27;20430;-68
2023/12/19 11:48:03;;;;;;;9.10;3.70;;;9.20;99.90;;;;;;5136024;27;20414;-67
2023/12/19 11:50:48;;;;;;;6.50;4.50;;;9.20;99.90;;;;;;5135748;27;20481;-67
2023/12/19 11:53:23;;;;;;;4.40;3.30;;;9.20;99.90;;;;;;5135718;27;20460;-68
2023/12/19 11:56:02;;;;;;;12.83;3.87;;;9.10;99.90;;;;;;5117612;27;20457;-67
2023/12/19 11:58:29;;;;;;;8.20;4.00;;;9.10;99.90;;;;;;5135789;27;20465;-67
2023/12/19 12:00:59;;;;;;;9.87;4.13;;;9.10;99.90;;;;;;5135601;27;20536;-67
2023/12/19 12:03:26;;;;;;;6.13;4.20;;;9.00;99.90;;;;;;5135660;27;20446;-67
2023/12/19 12:05:54;;;;;;;12.60;4.27;;;9.00;99.90;;;;;;5135850;27;20442;-67
2023/12/19 12:08:21;;;;;;;9.20;4.53;;;9.00;99.90;;;;;;5117576;27;20810;-68
2023/12/19 12:11:00;;;;;;;7.40;4.50;;;9.00;99.90;;;;;;5135175;27;21039;-68
2023/12/19 12:13:28;;;;;;;6.47;4.13;;;9.00;99.90;;;;;;5135464;27;20886;-67
2023/12/19 12:15:57;;;;;;;8.50;5.27;;;9.00;99.90;;;;;;5117765;27;20438;-68
2023/12/19 12:18:25;;;;;;;6.37;5.10;;;8.90;99.90;;;;;;5135212;27;20923;-69
2023/12/19 12:20:52;;;;;;;11.30;4.53;;;8.90;99.90;;;;;;5141794;27;20526;-67
2023/12/19 12:23:20;;;;;;;6.80;4.83;;;8.90;99.90;;;;;;5141819;27;20453;-69
2023/12/19 12:25:55;;;;;;;7.53;3.80;;;9.10;99.90;;;;;;5139689;27;20468;-68
2023/12/19 12:28:26;;;;;;;6.70;5.00;;;9.00;99.90;;;;;;5142386;27;20461;-68
2023/12/19 12:30:56;;;;;;;6.27;3.93;;;9.10;99.90;;;;;;5141425;27;20462;-68
2023/12/19 12:33:25;;;;;;;10.60;4.83;;;9.00;99.90;;;;;;5139584;27;20444;-68
2023/12/19 12:35:53;;;;;;;6.47;3.90;;;9.00;99.90;;;;;;5138777;27;20442;-68
2023/12/19 12:38:20;;;;;;;12.57;4.50;;;9.00;99.90;;;;;;5138067;27;20943;-68
2023/12/19 12:40:54;;;;;;;10.40;4.87;;;9.00;99.90;;;;;;5137039;27;20967;-69
2023/12/19 12:43:37;;;;;;;7.57;3.93;;;9.00;99.90;;;;;;5137027;27;20422;-68
2023/12/19 12:46:08;;;;;;;5.50;3.20;;;9.00;99.90;;;;;;5137063;27;20433;-68
2023/12/19 12:48:35;;;;;;;8.33;4.00;;;9.00;99.90;;;;;;5136267;27;20450;-68
2023/12/19 12:51:04;;;;;;;7.40;3.50;;;9.00;99.90;;;;;;5136503;27;20533;-69
2023/12/19 12:53:31;;;;;;;8.87;4.50;;;9.00;99.90;;;;;;5135745;27;20458;-68
2023/12/19 12:56:08;;;;;;;7.93;4.50;;;9.10;99.90;;;;;;5135422;27;20490;-68
2023/12/19 12:58:37;;;;;;;7.93;3.67;;;9.10;99.90;;;;;;5135887;27;20464;-68